Time;durP1;ratioP1;P1;durP2;ratioP2;P2;SDS_P1;SDS_P2;PMS_P1;PMS_P2;Temp;Humidity;BMP_temperature;BMP_pressure;BME280_temperature;BME280_humidity;BME280_pressure;Samples;Min_cycle;Max_cycle;Signal;HPM_P1;HPM_P2
2023/12/23 00:02:08;;;;;;;0.47;0.30;;;9.70;76.40;;;5.43;100.00;95400.22;4992752;28;20140;-55
2023/12/23 00:04:34;;;;;;;0.30;0.30;;;9.80;76.50;;;5.43;100.00;95405.50;4991398;28;20069;-58
2023/12/23 00:06:59;;;;;;;0.43;0.30;;;9.80;76.40;;;5.44;100.00;95418.47;4992341;28;20030;-55
2023/12/23 00:09:25;;;;;;;0.40;0.40;;;9.80;76.30;;;5.45;100.00;95404.22;4990293;28;20030;-57
2023/12/23 00:11:51;;;;;;;0.30;0.30;;;9.80;76.10;;;5.49;100.00;95417.78;4992061;28;20476;-57
2023/12/23 00:14:17;;;;;;;1.25;0.45;;;9.80;75.90;;;5.52;100.00;95412.00;4990389;28;20030;-58
2023/12/23 00:16:43;;;;;;;1.27;0.40;;;9.90;75.80;;;5.50;100.00;95404.31;4989754;28;20052;-58
2023/12/23 00:19:09;;;;;;;0.30;0.30;;;9.90;75.70;;;5.52;100.00;95409.38;4990054;28;20140;-58
2023/12/23 00:21:35;;;;;;;0.50;0.40;;;10.00;75.60;;;5.50;100.00;95401.66;4990770;28;20045;-58
2023/12/23 00:24:01;;;;;;;0.30;0.30;;;9.90;75.30;;;5.55;100.00;95390.41;4992024;28;20482;-57
2023/12/23 00:26:27;;;;;;;0.65;0.40;;;10.00;75.10;;;5.54;100.00;95409.91;4991276;28;20024;-59
2023/12/23 00:28:54;;;;;;;1.95;0.40;;;10.00;74.90;;;5.56;100.00;95416.56;4990967;28;20356;-56
2023/12/23 00:31:20;;;;;;;0.57;0.30;;;10.00;74.70;;;5.56;100.00;95410.50;4991543;28;20017;-59
2023/12/23 00:33:48;;;;;;;0.52;0.32;;;10.00;74.60;;;5.55;100.00;95408.91;4973054;28;20036;-60
2023/12/23 00:36:14;;;;;;;0.40;0.30;;;10.10;74.70;;;5.54;100.00;95410.72;4991839;28;20029;-58
2023/12/23 00:38:39;;;;;;;0.50;0.30;;;10.10;74.50;;;5.51;100.00;95420.97;4991766;28;20040;-56
2023/12/23 00:41:05;;;;;;;0.70;0.35;;;10.10;74.40;;;5.52;100.00;95412.00;4990635;28;20489;-55
2023/12/23 00:43:31;;;;;;;0.30;0.30;;;10.10;74.30;;;5.53;100.00;95413.59;4992140;28;20025;-54
2023/12/23 00:45:57;;;;;;;0.30;0.30;;;10.10;74.10;;;5.52;100.00;95422.59;4990549;28;20124;-55
2023/12/23 00:48:23;;;;;;;0.70;0.40;;;10.10;74.20;;;5.54;100.00;95415.19;4991425;28;20100;-56
2023/12/23 00:50:49;;;;;;;0.30;0.30;;;10.10;74.00;;;5.53;100.00;95430.25;4984127;28;20142;-55
2023/12/23 00:53:15;;;;;;;0.30;0.30;;;10.10;74.10;;;5.54;100.00;95409.91;4990752;28;20510;-57
2023/12/23 00:55:40;;;;;;;0.38;0.35;;;10.10;73.90;;;5.54;100.00;95405.44;4991148;28;20040;-56
2023/12/23 00:58:06;;;;;;;0.30;0.30;;;10.10;73.80;;;5.54;100.00;95439.78;4990146;28;20469;-57
2023/12/23 01:00:32;;;;;;;0.28;0.28;;;10.10;73.80;;;5.54;100.00;95433.69;4991485;28;20499;-57
2023/12/23 01:02:58;;;;;;;0.65;0.40;;;10.20;73.80;;;5.53;100.00;95438.19;4991416;28;20087;-57
2023/12/23 01:05:24;;;;;;;0.35;0.32;;;10.10;73.40;;;5.57;100.00;95452.53;4990502;28;20117;-54
2023/12/23 01:07:49;;;;;;;0.30;0.30;;;10.10;73.30;;;5.56;100.00;95442.19;4991328;28;20026;-55
2023/12/23 01:10:15;;;;;;;0.40;0.30;;;10.20;73.20;;;5.57;100.00;95443.78;4990910;28;20037;-56
2023/12/23 01:12:41;;;;;;;1.30;0.30;;;10.20;73.10;;;5.55;100.00;95451.97;4974329;28;20018;-56
2023/12/23 01:15:08;;;;;;;0.60;0.40;;;10.20;73.00;;;5.56;100.00;95463.34;4991685;28;20034;-57
2023/12/23 01:17:34;;;;;;;0.38;0.38;;;10.20;73.00;;;5.63;100.00;95466.63;4992156;28;20046;-58
2023/12/23 01:20:00;;;;;;;1.33;0.30;;;10.20;73.00;;;5.60;100.00;95475.03;4991850;28;20061;-56
2023/12/23 01:22:26;;;;;;;0.60;0.40;;;10.20;72.90;;;5.60;100.00;95477.69;4989117;28;20013;-54
2023/12/23 01:24:52;;;;;;;0.68;0.30;;;10.20;72.90;;;5.60;100.00;95480.31;4991555;28;20032;-56
2023/12/23 01:27:18;;;;;;;2.20;0.40;;;10.20;72.80;;;5.58;100.00;95485.06;4991373;28;20388;-55
2023/12/23 01:29:43;;;;;;;0.38;0.38;;;10.20;72.70;;;5.56;100.00;95476.56;4991424;28;20033;-55
2023/12/23 01:32:09;;;;;;;0.32;0.30;;;10.20;72.70;;;5.56;100.00;95489.75;4991163;28;20026;-52
2023/12/23 01:34:35;;;;;;;1.85;0.30;;;10.20;72.40;;;5.62;100.00;95488.03;4990815;28;20045;-56
2023/12/23 01:37:01;;;;;;;0.30;0.30;;;10.20;73.20;;;5.59;100.00;95501.72;4992084;28;20048;-51
2023/12/23 01:39:28;;;;;;;0.30;0.30;;;10.30;72.40;;;5.62;100.00;95496.75;4993457;28;20022;-54
2023/12/23 01:41:53;;;;;;;0.52;0.30;;;10.20;72.40;;;5.63;100.00;95489.63;4994747;28;20061;-53
2023/12/23 01:46:58;;;;;;;0.40;0.40;;;10.20;71.90;;;5.61;100.00;95505.72;4985478;28;20400;-55
2023/12/23 01:49:27;;;;;;;0.47;0.47;;;10.20;71.80;;;5.60;100.00;95503.31;4975902;28;20436;-54
2023/12/23 01:51:59;;;;;;;0.60;0.30;;;10.20;71.70;;;5.62;100.00;95523.19;4988085;28;20022;-57
